sensor_id;sensor_type;location;lat;lon;timestamp;P1;durP1;ratioP1;P2;durP2;ratioP2
62543;SDS011;48597;49.030;1.822;2023-04-30T00:02:06;2.25;;;2.05;;
62543;SDS011;48597;49.030;1.822;2023-04-30T00:04:32;2.58;;;2.30;;
62543;SDS011;48597;49.030;1.822;2023-04-30T00:06:57;2.53;;;2.33;;
62543;SDS011;48597;49.030;1.822;2023-04-30T00:09:23;3.03;;;2.55;;
62543;SDS011;48597;49.030;1.822;2023-04-30T00:11:48;2.70;;;2.50;;
62543;SDS011;48597;49.030;1.822;2023-04-30T00:14:14;3.35;;;2.55;;
62543;SDS011;48597;49.030;1.822;2023-04-30T00:16:39;2.70;;;2.50;;
62543;SDS011;48597;49.030;1.822;2023-04-30T00:19:05;2.50;;;2.30;;
62543;SDS011;48597;49.030;1.822;2023-04-30T00:21:31;2.63;;;2.25;;
62543;SDS011;48597;49.030;1.822;2023-04-30T00:23:57;2.85;;;2.25;;
62543;SDS011;48597;49.030;1.822;2023-04-30T00:26:24;2.38;;;2.17;;
62543;SDS011;48597;49.030;1.822;2023-04-30T00:28:49;2.38;;;2.17;;
62543;SDS011;48597;49.030;1.822;2023-04-30T00:31:15;2.67;;;2.47;;
62543;SDS011;48597;49.030;1.822;2023-04-30T00:33:40;2.97;;;2.58;;
62543;SDS011;48597;49.030;1.822;2023-04-30T00:36:05;2.88;;;2.30;;
62543;SDS011;48597;49.030;1.822;2023-04-30T00:38:31;2.53;;;2.33;;
62543;SDS011;48597;49.030;1.822;2023-04-30T00:40:56;2.58;;;2.30;;
62543;SDS011;48597;49.030;1.822;2023-04-30T00:43:22;2.40;;;2.20;;
62543;SDS011;48597;49.030;1.822;2023-04-30T00:45:47;2.47;;;2.28;;
62543;SDS011;48597;49.030;1.822;2023-04-30T00:48:12;2.40;;;2.20;;
62543;SDS011;48597;49.030;1.822;2023-04-30T00:50:38;2.80;;;2.45;;
62543;SDS011;48597;49.030;1.822;2023-04-30T00:53:03;2.58;;;2.20;;
62543;SDS011;48597;49.030;1.822;2023-04-30T00:55:30;2.20;;;1.98;;
62543;SDS011;48597;49.030;1.822;2023-04-30T00:57:55;2.15;;;1.80;;
62543;SDS011;48597;49.030;1.822;2023-04-30T01:00:20;2.42;;;2.22;;
62543;SDS011;48597;49.030;1.822;2023-04-30T01:02:46;2.55;;;2.35;;
62543;SDS011;48597;49.030;1.822;2023-04-30T01:05:12;2.83;;;2.33;;
62543;SDS011;48597;49.030;1.822;2023-04-30T01:07:38;2.53;;;2.33;;
62543;SDS011;48597;49.030;1.822;2023-04-30T01:10:13;2.42;;;2.22;;
62543;SDS011;48597;49.030;1.822;2023-04-30T01:12:45;2.17;;;1.98;;
62543;SDS011;48597;49.030;1.822;2023-04-30T01:20:53;2.40;;;2.20;;
62543;SDS011;48597;49.030;1.822;2023-04-30T01:26:37;2.92;;;2.40;;
62543;SDS011;48597;49.030;1.822;2023-04-30T01:31:43;2.53;;;2.20;;
62543;SDS011;48597;49.030;1.822;2023-04-30T01:34:09;2.55;;;2.35;;
62543;SDS011;48597;49.030;1.822;2023-04-30T01:42:50;2.88;;;2.50;;
62543;SDS011;48597;49.030;1.822;2023-04-30T01:48:27;2.22;;;2.00;;
62543;SDS011;48597;49.030;1.822;2023-04-30T01:53:57;2.55;;;2.30;;
62543;SDS011;48597;49.030;1.822;2023-04-30T01:56:30;2.70;;;2.40;;
62543;SDS011;48597;49.030;1.822;2023-04-30T01:58:59;2.47;;;2.28;;
62543;SDS011;48597;49.030;1.822;2023-04-30T02:01:30;2.38;;;2.00;;
62543;SDS011;48597;49.030;1.822;2023-04-30T02:03:57;2.13;;;1.92;;
62543;SDS011;48597;49.030;1.822;2023-04-30T02:06:24;2.40;;;2.20;;
62543;SDS011;48597;49.030;1.822;2023-04-30T02:08:52;2.60;;;2.40;;
62543;SDS011;48597;49.030;1.822;2023-04-30T02:11:18;2.85;;;2.05;;
62543;SDS011;48597;49.030;1.822;2023-04-30T02:13:43;2.78;;;2.47;;
62543;SDS011;48597;49.030;1.822;2023-04-30T02:16:09;2.35;;;2.15;;
62543;SDS011;48597;49.030;1.822;2023-04-30T02:18:34;2.30;;;2.10;;
62543;SDS011;48597;49.030;1.822;2023-04-30T02:21:00;2.25;;;2.00;;
62543;SDS011;48597;49.030;1.822;2023-04-30T02:23:25;2.15;;;2.00;;
62543;SDS011;48597;49.030;1.822;2023-04-30T02:25:51;2.58;;;2.20;;
62543;SDS011;48597;49.030;1.822;2023-04-30T02:28:16;2.50;;;2.30;;
62543;SDS011;48597;49.030;1.822;2023-04-30T02:30:41;2.67;;;2.30;;
62543;SDS011;48597;49.030;1.822;2023-04-30T02:33:07;2.22;;;2.03;;
62543;SDS011;48597;49.030;1.822;2023-04-30T02:35:36;2.22;;;2.03;;
62543;SDS011;48597;49.030;1.822;2023-04-30T02:38:01;2.22;;;2.03;;
62543;SDS011;48597;49.030;1.822;2023-04-30T02:40:26;2.03;;;1.90;;
62543;SDS011;48597;49.030;1.822;2023-04-30T02:42:52;2.50;;;2.30;;
62543;SDS011;48597;49.030;1.822;2023-04-30T02:45:18;2.35;;;2.15;;
62543;SDS011;48597;49.030;1.822;2023-04-30T02:47:44;2.40;;;2.20;;
62543;SDS011;48597;49.030;1.822;2023-04-30T02:50:09;2.42;;;2.20;;
62543;SDS011;48597;49.030;1.822;2023-04-30T02:52:35;2.20;;;2.00;;
62543;SDS011;48597;49.030;1.822;2023-04-30T02:55:00;2.10;;;1.90;;
62543;SDS011;48597;49.030;1.822;2023-04-30T02:57:26;2.30;;;1.90;;
62543;SDS011;48597;49.030;1.822;2023-04-30T02:59:51;2.20;;;2.00;;
62543;SDS011;48597;49.030;1.822;2023-04-30T03:02:16;2.28;;;2.08;;
62543;SDS011;48597;49.030;1.822;2023-04-30T03:04:45;2.78;;;2.15;;
62543;SDS011;48597;49.030;1.822;2023-04-30T03:07:10;2.25;;;1.95;;
62543;SDS011;48597;49.030;1.822;2023-04-30T03:09:36;2.00;;;1.90;;
62543;SDS011;48597;49.030;1.822;2023-04-30T03:12:01;2.30;;;2.10;;
62543;SDS011;48597;49.030;1.822;2023-04-30T03:14:26;2.60;;;2.40;;
62543;SDS011;48597;49.030;1.822;2023-04-30T03:16:52;2.50;;;1.95;;
62543;SDS011;48597;49.030;1.822;2023-04-30T03:19:18;2.17;;;1.90;;
62543;SDS011;48597;49.030;1.822;2023-04-30T03:21:46;2.33;;;1.95;;
62543;SDS011;48597;49.030;1.822;2023-04-30T03:24:11;2.20;;;2.00;;
62543;SDS011;48597;49.030;1.822;2023-04-30T03:26:36;2.03;;;1.83;;
62543;SDS011;48597;49.030;1.822;2023-04-30T03:29:02;2.08;;;1.88;;
62543;SDS011;48597;49.030;1.822;2023-04-30T03:31:27;2.20;;;2.00;;
62543;SDS011;48597;49.030;1.822;2023-04-30T03:33:53;2.22;;;2.03;;
62543;SDS011;48597;49.030;1.822;2023-04-30T03:36:18;2.00;;;1.90;;
62543;SDS011;48597;49.030;1.822;2023-04-30T03:38:43;2.15;;;1.95;;
62543;SDS011;48597;49.030;1.822;2023-04-30T03:41:09;2.20;;;2.00;;
62543;SDS011;48597;49.030;1.822;2023-04-30T03:43:35;2.30;;;2.00;;
62543;SDS011;48597;49.030;1.822;2023-04-30T03:46:01;1.90;;;1.80;;
62543;SDS011;48597;49.030;1.822;2023-04-30T03:48:27;2.40;;;2.08;;
62543;SDS011;48597;49.030;1.822;2023-04-30T03:50:52;2.20;;;2.00;;
62543;SDS011;48597;49.030;1.822;2023-04-30T03:53:18;2.10;;;1.95;;
62543;SDS011;48597;49.030;1.822;2023-04-30T03:55:43;2.28;;;2.08;;
62543;SDS011;48597;49.030;1.822;2023-04-30T03:58:09;2.00;;;1.80;;
62543;SDS011;48597;49.030;1.822;2023-04-30T04:00:34;2.10;;;1.83;;
62543;SDS011;48597;49.030;1.822;2023-04-30T04:03:00;2.15;;;1.95;;
62543;SDS011;48597;49.030;1.822;2023-04-30T04:05:25;1.90;;;1.67;;
62543;SDS011;48597;49.030;1.822;2023-04-30T04:07:51;2.00;;;1.80;;
62543;SDS011;48597;49.030;1.822;2023-04-30T04:10:16;2.03;;;1.83;;
62543;SDS011;48597;49.030;1.822;2023-04-30T04:12:41;2.13;;;1.88;;
62543;SDS011;48597;49.030;1.822;2023-04-30T04:15:07;2.47;;;1.80;;
62543;SDS011;48597;49.030;1.822;2023-04-30T04:17:33;2.10;;;1.90;;
62543;SDS011;48597;49.030;1.822;2023-04-30T04:19:58;2.10;;;1.90;;
62543;SDS011;48597;49.030;1.822;2023-04-30T04:22:23;1.98;;;1.73;;
62543;SDS011;48597;49.030;1.822;2023-04-30T04:24:49;2.20;;;2.00;;
62543;SDS011;48597;49.030;1.822;2023-04-30T04:27:15;2.03;;;1.83;;
62543;SDS011;48597;49.030;1.822;2023-04-30T04:29:40;2.45;;;1.83;;
62543;SDS011;48597;49.030;1.822;2023-04-30T04:32:06;1.70;;;1.60;;
62543;SDS011;48597;49.030;1.822;2023-04-30T04:34:31;1.92;;;1.75;;
62543;SDS011;48597;49.030;1.822;2023-04-30T04:36:57;1.70;;;1.60;;
62543;SDS011;48597;49.030;1.822;2023-04-30T04:39:22;1.77;;;1.67;;
62543;SDS011;48597;49.030;1.822;2023-04-30T04:41:48;2.08;;;1.88;;
62543;SDS011;48597;49.030;1.822;2023-04-30T04:44:13;1.80;;;1.70;;
62543;SDS011;48597;49.030;1.822;2023-04-30T04:46:38;2.08;;;1.88;;
62543;SDS011;48597;49.030;1.822;2023-04-30T04:49:06;2.00;;;1.80;;
62543;SDS011;48597;49.030;1.822;2023-04-30T04:51:31;2.50;;;1.80;;
62543;SDS011;48597;49.030;1.822;2023-04-30T04:53:57;1.80;;;1.70;;
62543;SDS011;48597;49.030;1.822;2023-04-30T04:56:23;1.92;;;1.73;;
62543;SDS011;48597;49.030;1.822;2023-04-30T04:58:48;1.70;;;1.60;;
62543;SDS011;48597;49.030;1.822;2023-04-30T05:01:14;1.48;;;1.35;;
62543;SDS011;48597;49.030;1.822;2023-04-30T05:03:39;1.88;;;1.77;;
62543;SDS011;48597;49.030;1.822;2023-04-30T05:06:04;1.90;;;1.63;;
62543;SDS011;48597;49.030;1.822;2023-04-30T05:08:30;1.90;;;1.67;;
62543;SDS011;48597;49.030;1.822;2023-04-30T05:10:55;1.77;;;1.67;;
62543;SDS011;48597;49.030;1.822;2023-04-30T05:13:21;2.10;;;1.60;;
62543;SDS011;48597;49.030;1.822;2023-04-30T05:15:50;1.88;;;1.77;;
62543;SDS011;48597;49.030;1.822;2023-04-30T05:18:17;1.90;;;1.70;;
62543;SDS011;48597;49.030;1.822;2023-04-30T05:20:42;1.70;;;1.60;;
62543;SDS011;48597;49.030;1.822;2023-04-30T05:23:08;2.25;;;1.70;;
62543;SDS011;48597;49.030;1.822;2023-04-30T05:25:34;1.83;;;1.73;;
62543;SDS011;48597;49.030;1.822;2023-04-30T05:27:59;2.03;;;1.80;;
62543;SDS011;48597;49.030;1.822;2023-04-30T05:30:25;2.83;;;1.50;;
62543;SDS011;48597;49.030;1.822;2023-04-30T05:32:50;1.80;;;1.70;;
62543;SDS011;48597;49.030;1.822;2023-04-30T05:35:17;1.80;;;1.70;;
62543;SDS011;48597;49.030;1.822;2023-04-30T05:37:43;2.30;;;1.77;;
62543;SDS011;48597;49.030;1.822;2023-04-30T05:40:09;1.73;;;1.63;;
62543;SDS011;48597;49.030;1.822;2023-04-30T05:42:36;1.75;;;1.65;;
62543;SDS011;48597;49.030;1.822;2023-04-30T05:45:02;1.75;;;1.65;;
62543;SDS011;48597;49.030;1.822;2023-04-30T05:47:28;1.70;;;1.60;;
62543;SDS011;48597;49.030;1.822;2023-04-30T05:49:53;2.08;;;1.73;;
62543;SDS011;48597;49.030;1.822;2023-04-30T05:52:18;1.80;;;1.70;;
62543;SDS011;48597;49.030;1.822;2023-04-30T05:54:44;2.13;;;1.88;;
62543;SDS011;48597;49.030;1.822;2023-04-30T05:57:09;1.65;;;1.55;;
62543;SDS011;48597;49.030;1.822;2023-04-30T05:59:35;1.98;;;1.83;;
62543;SDS011;48597;49.030;1.822;2023-04-30T06:02:00;2.00;;;1.85;;
62543;SDS011;48597;49.030;1.822;2023-04-30T06:04:25;1.70;;;1.60;;
62543;SDS011;48597;49.030;1.822;2023-04-30T06:06:51;1.98;;;1.77;;
62543;SDS011;48597;49.030;1.822;2023-04-30T06:09:16;1.88;;;1.77;;
62543;SDS011;48597;49.030;1.822;2023-04-30T06:11:41;1.88;;;1.60;;
62543;SDS011;48597;49.030;1.822;2023-04-30T06:14:09;1.75;;;1.60;;
62543;SDS011;48597;49.030;1.822;2023-04-30T06:16:36;1.73;;;1.63;;
62543;SDS011;48597;49.030;1.822;2023-04-30T06:19:02;2.20;;;2.00;;
62543;SDS011;48597;49.030;1.822;2023-04-30T06:21:27;1.90;;;1.70;;
62543;SDS011;48597;49.030;1.822;2023-04-30T06:23:53;1.63;;;1.52;;
62543;SDS011;48597;49.030;1.822;2023-04-30T06:26:18;1.83;;;1.70;;
62543;SDS011;48597;49.030;1.822;2023-04-30T06:28:44;2.13;;;1.92;;
62543;SDS011;48597;49.030;1.822;2023-04-30T06:31:10;1.70;;;1.60;;
62543;SDS011;48597;49.030;1.822;2023-04-30T06:33:36;1.95;;;1.73;;
62543;SDS011;48597;49.030;1.822;2023-04-30T06:36:02;2.13;;;1.98;;
62543;SDS011;48597;49.030;1.822;2023-04-30T06:38:27;2.08;;;1.80;;
62543;SDS011;48597;49.030;1.822;2023-04-30T06:40:53;2.50;;;1.70;;
62543;SDS011;48597;49.030;1.822;2023-04-30T06:43:18;2.08;;;1.85;;
62543;SDS011;48597;49.030;1.822;2023-04-30T06:45:44;2.30;;;2.10;;
62543;SDS011;48597;49.030;1.822;2023-04-30T06:48:10;1.77;;;1.67;;
62543;SDS011;48597;49.030;1.822;2023-04-30T06:50:35;1.90;;;1.80;;
62543;SDS011;48597;49.030;1.822;2023-04-30T06:53:08;2.15;;;1.90;;
62543;SDS011;48597;49.030;1.822;2023-04-30T06:55:33;2.20;;;1.90;;
62543;SDS011;48597;49.030;1.822;2023-04-30T06:57:58;2.03;;;1.90;;
62543;SDS011;48597;49.030;1.822;2023-04-30T07:00:24;2.03;;;1.92;;
62543;SDS011;48597;49.030;1.822;2023-04-30T07:02:50;1.88;;;1.70;;
62543;SDS011;48597;49.030;1.822;2023-04-30T07:05:16;1.80;;;1.70;;
62543;SDS011;48597;49.030;1.822;2023-04-30T07:07:41;2.47;;;1.98;;
62543;SDS011;48597;49.030;1.822;2023-04-30T07:10:07;1.90;;;1.80;;
62543;SDS011;48597;49.030;1.822;2023-04-30T07:12:32;2.03;;;1.83;;
62543;SDS011;48597;49.030;1.822;2023-04-30T07:14:58;1.88;;;1.77;;
62543;SDS011;48597;49.030;1.822;2023-04-30T07:17:23;2.30;;;2.10;;
62543;SDS011;48597;49.030;1.822;2023-04-30T07:19:49;1.95;;;1.85;;
62543;SDS011;48597;49.030;1.822;2023-04-30T07:22:14;1.90;;;1.80;;
62543;SDS011;48597;49.030;1.822;2023-04-30T07:24:39;2.17;;;1.98;;
62543;SDS011;48597;49.030;1.822;2023-04-30T07:27:05;2.00;;;1.90;;
62543;SDS011;48597;49.030;1.822;2023-04-30T07:29:31;2.00;;;1.80;;
62543;SDS011;48597;49.030;1.822;2023-04-30T07:31:57;2.15;;;1.95;;
62543;SDS011;48597;49.030;1.822;2023-04-30T07:34:23;3.17;;;2.10;;
62543;SDS011;48597;49.030;1.822;2023-04-30T07:36:49;2.42;;;2.22;;
62543;SDS011;48597;49.030;1.822;2023-04-30T07:39:14;1.85;;;1.75;;
62543;SDS011;48597;49.030;1.822;2023-04-30T07:41:40;2.50;;;2.30;;
62543;SDS011;48597;49.030;1.822;2023-04-30T07:44:05;1.83;;;1.73;;
62543;SDS011;48597;49.030;1.822;2023-04-30T07:46:31;2.25;;;1.80;;
62543;SDS011;48597;49.030;1.822;2023-04-30T07:48:56;2.30;;;1.98;;
62543;SDS011;48597;49.030;1.822;2023-04-30T07:51:22;2.05;;;1.85;;
62543;SDS011;48597;49.030;1.822;2023-04-30T07:53:48;2.00;;;1.80;;
62543;SDS011;48597;49.030;1.822;2023-04-30T07:56:13;2.15;;;1.80;;
62543;SDS011;48597;49.030;1.822;2023-04-30T07:58:38;2.10;;;1.90;;
62543;SDS011;48597;49.030;1.822;2023-04-30T08:01:04;2.20;;;2.00;;
62543;SDS011;48597;49.030;1.822;2023-04-30T08:03:29;2.50;;;2.30;;
62543;SDS011;48597;49.030;1.822;2023-04-30T08:05:54;1.85;;;1.73;;
62543;SDS011;48597;49.030;1.822;2023-04-30T08:08:20;2.08;;;1.90;;
62543;SDS011;48597;49.030;1.822;2023-04-30T08:10:46;2.10;;;1.90;;
62543;SDS011;48597;49.030;1.822;2023-04-30T08:13:11;1.70;;;1.60;;
62543;SDS011;48597;49.030;1.822;2023-04-30T08:15:36;2.10;;;1.90;;
62543;SDS011;48597;49.030;1.822;2023-04-30T08:18:04;1.85;;;1.75;;
62543;SDS011;48597;49.030;1.822;2023-04-30T08:20:30;2.20;;;2.00;;
62543;SDS011;48597;49.030;1.822;2023-04-30T08:22:56;2.05;;;1.90;;
62543;SDS011;48597;49.030;1.822;2023-04-30T08:25:21;2.22;;;2.03;;
62543;SDS011;48597;49.030;1.822;2023-04-30T08:27:47;1.77;;;1.67;;
62543;SDS011;48597;49.030;1.822;2023-04-30T08:30:12;2.28;;;2.08;;
62543;SDS011;48597;49.030;1.822;2023-04-30T08:32:38;3.08;;;1.92;;
62543;SDS011;48597;49.030;1.822;2023-04-30T08:35:03;2.00;;;1.77;;
62543;SDS011;48597;49.030;1.822;2023-04-30T08:37:29;3.35;;;2.10;;
62543;SDS011;48597;49.030;1.822;2023-04-30T08:39:55;2.85;;;2.05;;
62543;SDS011;48597;49.030;1.822;2023-04-30T08:42:20;2.47;;;2.00;;
62543;SDS011;48597;49.030;1.822;2023-04-30T08:44:49;2.20;;;1.80;;
62543;SDS011;48597;49.030;1.822;2023-04-30T08:47:14;3.25;;;2.00;;
62543;SDS011;48597;49.030;1.822;2023-04-30T08:49:41;2.28;;;2.08;;
62543;SDS011;48597;49.030;1.822;2023-04-30T08:52:07;1.98;;;1.88;;
62543;SDS011;48597;49.030;1.822;2023-04-30T08:54:34;3.70;;;2.05;;
62543;SDS011;48597;49.030;1.822;2023-04-30T08:57:00;2.20;;;2.00;;
62543;SDS011;48597;49.030;1.822;2023-04-30T08:59:26;2.42;;;2.22;;
62543;SDS011;48597;49.030;1.822;2023-04-30T09:01:52;2.50;;;1.98;;
62543;SDS011;48597;49.030;1.822;2023-04-30T09:04:17;2.65;;;2.20;;
62543;SDS011;48597;49.030;1.822;2023-04-30T09:06:43;2.53;;;2.05;;
62543;SDS011;48597;49.030;1.822;2023-04-30T09:09:10;2.60;;;2.40;;
62543;SDS011;48597;49.030;1.822;2023-04-30T09:11:36;3.08;;;2.30;;
62543;SDS011;48597;49.030;1.822;2023-04-30T09:14:02;3.03;;;2.03;;
62543;SDS011;48597;49.030;1.822;2023-04-30T09:16:28;2.90;;;2.10;;
62543;SDS011;48597;49.030;1.822;2023-04-30T09:19:08;2.70;;;1.92;;
62543;SDS011;48597;49.030;1.822;2023-04-30T09:21:34;2.30;;;2.10;;
62543;SDS011;48597;49.030;1.822;2023-04-30T09:24:01;2.30;;;2.10;;
62543;SDS011;48597;49.030;1.822;2023-04-30T09:26:32;2.38;;;2.13;;
62543;SDS011;48597;49.030;1.822;2023-04-30T09:28:59;2.35;;;2.15;;
62543;SDS011;48597;49.030;1.822;2023-04-30T09:31:25;2.50;;;2.30;;
62543;SDS011;48597;49.030;1.822;2023-04-30T09:33:52;2.30;;;2.05;;
62543;SDS011;48597;49.030;1.822;2023-04-30T09:36:18;4.57;;;2.50;;
62543;SDS011;48597;49.030;1.822;2023-04-30T09:38:44;2.58;;;2.13;;
62543;SDS011;48597;49.030;1.822;2023-04-30T09:41:23;2.53;;;2.22;;
62543;SDS011;48597;49.030;1.822;2023-04-30T09:43:50;3.28;;;2.63;;
62543;SDS011;48597;49.030;1.822;2023-04-30T09:46:20;2.90;;;2.15;;
62543;SDS011;48597;49.030;1.822;2023-04-30T09:48:48;3.83;;;2.13;;
62543;SDS011;48597;49.030;1.822;2023-04-30T09:51:21;3.03;;;1.95;;
62543;SDS011;48597;49.030;1.822;2023-04-30T09:53:46;2.28;;;2.08;;
62543;SDS011;48597;49.030;1.822;2023-04-30T09:56:12;3.75;;;2.00;;
62543;SDS011;48597;49.030;1.822;2023-04-30T09:58:42;3.80;;;2.20;;
62543;SDS011;48597;49.030;1.822;2023-04-30T10:01:13;3.17;;;1.98;;
62543;SDS011;48597;49.030;1.822;2023-04-30T10:03:40;2.22;;;2.10;;
62543;SDS011;48597;49.030;1.822;2023-04-30T10:06:06;2.30;;;2.10;;
62543;SDS011;48597;49.030;1.822;2023-04-30T10:08:35;2.95;;;2.22;;
62543;SDS011;48597;49.030;1.822;2023-04-30T10:11:06;2.33;;;2.00;;
62543;SDS011;48597;49.030;1.822;2023-04-30T10:13:34;2.90;;;1.90;;
62543;SDS011;48597;49.030;1.822;2023-04-30T10:16:14;3.50;;;2.30;;
62543;SDS011;48597;49.030;1.822;2023-04-30T10:18:48;4.22;;;2.03;;
62543;SDS011;48597;49.030;1.822;2023-04-30T10:21:16;5.28;;;2.22;;
62543;SDS011;48597;49.030;1.822;2023-04-30T10:23:42;2.40;;;2.15;;
62543;SDS011;48597;49.030;1.822;2023-04-30T10:26:09;2.47;;;1.90;;
62543;SDS011;48597;49.030;1.822;2023-04-30T10:28:36;2.22;;;2.03;;
62543;SDS011;48597;49.030;1.822;2023-04-30T10:31:02;2.53;;;2.10;;
62543;SDS011;48597;49.030;1.822;2023-04-30T10:39:24;2.60;;;2.25;;
62543;SDS011;48597;49.030;1.822;2023-04-30T10:42:00;2.97;;;2.20;;
62543;SDS011;48597;49.030;1.822;2023-04-30T10:44:32;3.03;;;1.80;;
62543;SDS011;48597;49.030;1.822;2023-04-30T10:47:02;2.25;;;2.05;;
62543;SDS011;48597;49.030;1.822;2023-04-30T10:49:29;2.42;;;1.95;;
62543;SDS011;48597;49.030;1.822;2023-04-30T10:51:57;2.10;;;1.90;;
62543;SDS011;48597;49.030;1.822;2023-04-30T10:54:25;2.20;;;1.92;;
62543;SDS011;48597;49.030;1.822;2023-04-30T10:56:53;2.40;;;2.20;;
62543;SDS011;48597;49.030;1.822;2023-04-30T10:59:21;4.15;;;2.40;;
62543;SDS011;48597;49.030;1.822;2023-04-30T11:01:59;2.30;;;2.10;;
62543;SDS011;48597;49.030;1.822;2023-04-30T11:04:25;2.55;;;2.05;;
62543;SDS011;48597;49.030;1.822;2023-04-30T11:09:16;3.35;;;1.90;;
62543;SDS011;48597;49.030;1.822;2023-04-30T11:11:45;2.00;;;1.80;;
62543;SDS011;48597;49.030;1.822;2023-04-30T11:14:19;2.58;;;1.88;;
62543;SDS011;48597;49.030;1.822;2023-04-30T11:16:47;3.13;;;1.90;;
62543;SDS011;48597;49.030;1.822;2023-04-30T11:19:13;2.17;;;1.98;;
62543;SDS011;48597;49.030;1.822;2023-04-30T11:21:40;2.35;;;2.00;;
62543;SDS011;48597;49.030;1.822;2023-04-30T11:24:06;2.53;;;1.83;;
62543;SDS011;48597;49.030;1.822;2023-04-30T11:29:32;2.30;;;2.10;;
62543;SDS011;48597;49.030;1.822;2023-04-30T11:32:02;2.45;;;2.10;;
62543;SDS011;48597;49.030;1.822;2023-04-30T11:34:28;2.25;;;1.90;;
62543;SDS011;48597;49.030;1.822;2023-04-30T11:36:57;2.13;;;1.90;;
62543;SDS011;48597;49.030;1.822;2023-04-30T11:39:24;2.50;;;1.90;;
62543;SDS011;48597;49.030;1.822;2023-04-30T11:41:52;2.05;;;1.88;;
62543;SDS011;48597;49.030;1.822;2023-04-30T11:44:24;2.00;;;1.80;;
62543;SDS011;48597;49.030;1.822;2023-04-30T11:46:50;2.72;;;2.13;;
62543;SDS011;48597;49.030;1.822;2023-04-30T11:49:16;2.30;;;2.10;;
62543;SDS011;48597;49.030;1.822;2023-04-30T11:51:42;2.40;;;2.20;;
62543;SDS011;48597;49.030;1.822;2023-04-30T11:54:12;2.25;;;2.05;;
62543;SDS011;48597;49.030;1.822;2023-04-30T11:56:38;2.72;;;2.13;;
62543;SDS011;48597;49.030;1.822;2023-04-30T11:59:08;2.40;;;2.20;;
62543;SDS011;48597;49.030;1.822;2023-04-30T12:01:34;3.78;;;2.13;;
62543;SDS011;48597;49.030;1.822;2023-04-30T12:04:01;2.42;;;2.15;;
62543;SDS011;48597;49.030;1.822;2023-04-30T12:06:28;2.42;;;2.22;;
62543;SDS011;48597;49.030;1.822;2023-04-30T12:08:54;2.53;;;2.17;;
62543;SDS011;48597;49.030;1.822;2023-04-30T12:11:21;2.78;;;2.00;;
62543;SDS011;48597;49.030;1.822;2023-04-30T12:14:08;2.13;;;1.75;;
62543;SDS011;48597;49.030;1.822;2023-04-30T12:16:45;3.40;;;1.88;;
62543;SDS011;48597;49.030;1.822;2023-04-30T12:19:15;2.28;;;2.00;;
62543;SDS011;48597;49.030;1.822;2023-04-30T12:21:42;3.40;;;2.20;;
62543;SDS011;48597;49.030;1.822;2023-04-30T12:24:17;3.08;;;2.58;;
62543;SDS011;48597;49.030;1.822;2023-04-30T12:26:43;3.80;;;2.50;;
62543;SDS011;48597;49.030;1.822;2023-04-30T12:29:13;3.60;;;2.35;;
62543;SDS011;48597;49.030;1.822;2023-04-30T12:31:40;4.20;;;2.88;;
62543;SDS011;48597;49.030;1.822;2023-04-30T12:34:07;3.25;;;2.40;;
62543;SDS011;48597;49.030;1.822;2023-04-30T12:36:34;4.22;;;2.72;;
62543;SDS011;48597;49.030;1.822;2023-04-30T12:39:06;3.60;;;2.70;;
62543;SDS011;48597;49.030;1.822;2023-04-30T12:44:40;3.72;;;3.08;;
62543;SDS011;48597;49.030;1.822;2023-04-30T12:47:06;4.57;;;2.78;;
62543;SDS011;48597;49.030;1.822;2023-04-30T12:49:33;5.10;;;3.00;;
62543;SDS011;48597;49.030;1.822;2023-04-30T12:52:00;4.35;;;2.80;;
62543;SDS011;48597;49.030;1.822;2023-04-30T12:54:28;5.05;;;3.67;;
62543;SDS011;48597;49.030;1.822;2023-04-30T12:59:27;5.97;;;2.63;;
62543;SDS011;48597;49.030;1.822;2023-04-30T13:01:52;3.92;;;2.70;;
62543;SDS011;48597;49.030;1.822;2023-04-30T13:04:19;4.45;;;3.10;;
62543;SDS011;48597;49.030;1.822;2023-04-30T13:06:44;3.53;;;2.60;;
62543;SDS011;48597;49.030;1.822;2023-04-30T13:09:10;4.40;;;2.83;;
62543;SDS011;48597;49.030;1.822;2023-04-30T13:11:36;5.25;;;2.90;;
62543;SDS011;48597;49.030;1.822;2023-04-30T13:14:02;5.22;;;3.10;;
62543;SDS011;48597;49.030;1.822;2023-04-30T13:16:28;5.25;;;3.17;;
62543;SDS011;48597;49.030;1.822;2023-04-30T13:18:54;4.03;;;3.10;;
62543;SDS011;48597;49.030;1.822;2023-04-30T13:21:20;3.78;;;3.10;;
62543;SDS011;48597;49.030;1.822;2023-04-30T13:23:45;5.22;;;3.03;;
62543;SDS011;48597;49.030;1.822;2023-04-30T13:26:11;5.50;;;2.92;;
62543;SDS011;48597;49.030;1.822;2023-04-30T13:28:36;5.28;;;3.28;;
62543;SDS011;48597;49.030;1.822;2023-04-30T13:31:01;4.00;;;3.03;;
62543;SDS011;48597;49.030;1.822;2023-04-30T13:33:27;3.95;;;3.00;;
62543;SDS011;48597;49.030;1.822;2023-04-30T13:35:52;8.13;;;2.80;;
62543;SDS011;48597;49.030;1.822;2023-04-30T13:38:17;5.38;;;3.03;;
62543;SDS011;48597;49.030;1.822;2023-04-30T13:40:43;4.22;;;2.75;;
62543;SDS011;48597;49.030;1.822;2023-04-30T13:43:08;5.65;;;3.17;;
62543;SDS011;48597;49.030;1.822;2023-04-30T13:45:33;4.72;;;2.65;;
62543;SDS011;48597;49.030;1.822;2023-04-30T13:47:59;4.88;;;3.10;;
62543;SDS011;48597;49.030;1.822;2023-04-30T13:50:24;5.20;;;2.92;;
62543;SDS011;48597;49.030;1.822;2023-04-30T13:52:50;4.57;;;2.80;;
62543;SDS011;48597;49.030;1.822;2023-04-30T13:55:16;4.95;;;3.08;;
62543;SDS011;48597;49.030;1.822;2023-04-30T13:57:41;4.75;;;2.97;;
62543;SDS011;48597;49.030;1.822;2023-04-30T14:00:07;5.43;;;2.80;;
62543;SDS011;48597;49.030;1.822;2023-04-30T14:02:33;4.47;;;3.10;;
62543;SDS011;48597;49.030;1.822;2023-04-30T14:04:58;4.90;;;2.88;;
62543;SDS011;48597;49.030;1.822;2023-04-30T14:07:27;5.50;;;2.83;;
62543;SDS011;48597;49.030;1.822;2023-04-30T14:09:52;4.95;;;3.13;;
62543;SDS011;48597;49.030;1.822;2023-04-30T14:12:18;4.50;;;2.78;;
62543;SDS011;48597;49.030;1.822;2023-04-30T14:14:45;4.50;;;2.55;;
62543;SDS011;48597;49.030;1.822;2023-04-30T14:17:10;4.90;;;2.88;;
62543;SDS011;48597;49.030;1.822;2023-04-30T14:19:36;5.07;;;2.50;;
62543;SDS011;48597;49.030;1.822;2023-04-30T14:22:01;4.13;;;2.72;;
62543;SDS011;48597;49.030;1.822;2023-04-30T14:24:26;3.63;;;2.35;;
62543;SDS011;48597;49.030;1.822;2023-04-30T14:26:52;4.88;;;2.83;;
62543;SDS011;48597;49.030;1.822;2023-04-30T14:29:17;4.10;;;2.65;;
62543;SDS011;48597;49.030;1.822;2023-04-30T14:31:43;4.90;;;2.60;;
62543;SDS011;48597;49.030;1.822;2023-04-30T14:34:10;4.47;;;2.72;;
62543;SDS011;48597;49.030;1.822;2023-04-30T14:36:36;5.95;;;2.95;;
62543;SDS011;48597;49.030;1.822;2023-04-30T14:39:02;5.85;;;2.83;;
62543;SDS011;48597;49.030;1.822;2023-04-30T14:41:28;4.18;;;2.60;;
62543;SDS011;48597;49.030;1.822;2023-04-30T14:43:58;3.95;;;2.72;;
62543;SDS011;48597;49.030;1.822;2023-04-30T14:46:23;4.38;;;2.67;;
62543;SDS011;48597;49.030;1.822;2023-04-30T14:48:49;4.15;;;2.90;;
62543;SDS011;48597;49.030;1.822;2023-04-30T14:51:14;4.60;;;2.60;;
62543;SDS011;48597;49.030;1.822;2023-04-30T14:53:39;4.88;;;3.00;;
62543;SDS011;48597;49.030;1.822;2023-04-30T14:56:05;5.07;;;2.50;;
62543;SDS011;48597;49.030;1.822;2023-04-30T14:58:31;3.72;;;2.42;;
62543;SDS011;48597;49.030;1.822;2023-04-30T15:00:56;3.75;;;2.45;;
62543;SDS011;48597;49.030;1.822;2023-04-30T15:03:21;4.75;;;2.35;;
62543;SDS011;48597;49.030;1.822;2023-04-30T15:05:47;4.43;;;2.40;;
62543;SDS011;48597;49.030;1.822;2023-04-30T15:08:14;5.07;;;2.72;;
62543;SDS011;48597;49.030;1.822;2023-04-30T15:10:40;4.43;;;2.60;;
62543;SDS011;48597;49.030;1.822;2023-04-30T15:13:06;4.82;;;2.55;;
62543;SDS011;48597;49.030;1.822;2023-04-30T15:15:31;4.60;;;2.50;;
62543;SDS011;48597;49.030;1.822;2023-04-30T15:17:57;4.05;;;2.30;;
62543;SDS011;48597;49.030;1.822;2023-04-30T15:20:24;5.45;;;3.10;;
62543;SDS011;48597;49.030;1.822;2023-04-30T15:22:49;3.58;;;2.65;;
62543;SDS011;48597;49.030;1.822;2023-04-30T15:25:15;3.58;;;2.25;;